Forside
METAR-TAF:

METAR-TAF

Lufthavne :

Udaipur, Indien

Breddekreds: 24-37-04N, længdekreds: 73-53-46E, højde: 513 m

Aktuelle vejr

Denne rapport blev lavet for 4 timer og 48 minutter siden, kl. 14:00 UTC
Vind 4 kt fra nordnordøst
Temperatur 15°C
Fugtighed 59%
Tryk 1020 hPa
Sigt: 3000 m
Brudte skyer i en højde af 3000 ft
Brudte skyer i en højde af 10000 ft
tåge/dis

METAR: VAUD 171400Z 03004KT 3000 HZ BKN030 BKN100 15/07 Q1020 NOSIG

Tid: 00:18 (18:48 UTC)


TAF: fraværende

Vejrobservationer og prognoser fra mere end 4000 lufthavne (METAR og TAF).

De gule og røde prikker repræsenterer de meteorologiske stationer.

Flyt musen over at se navnet på stationen.

Så klik over at se vejr observationer og prognoser.

At skifte det kort: Klik på de grønne knapper med et sort kors for at zoome ind; på den grønne knap med en bindestreg for at zoome ud; eller på de grønne pile for tilstødende kort.


METAR-TAF: